createdAt,value
2023-05-15T00:01:17.949Z,8.07
2023-05-15T00:03:52.217Z,7.27
2023-05-15T00:06:20.396Z,7.90
2023-05-15T00:08:55.168Z,8.30
2023-05-15T00:11:27.694Z,7.67
2023-05-15T00:14:02.228Z,7.60
2023-05-15T00:16:30.064Z,7.67
2023-05-15T00:18:58.098Z,7.47
2023-05-15T00:21:32.070Z,7.40
2023-05-15T00:23:59.912Z,7.17
2023-05-15T00:26:36.063Z,7.50
2023-05-15T00:29:03.974Z,7.80
2023-05-15T00:31:40.159Z,6.93
2023-05-15T00:34:08.025Z,6.83
2023-05-15T00:36:43.329Z,6.83
2023-05-15T00:39:11.281Z,7.57
2023-05-15T00:41:42.876Z,7.20
2023-05-15T00:44:19.098Z,7.50
2023-05-15T00:46:47.790Z,7.17
2023-05-15T00:49:23.148Z,7.27
2023-05-15T00:51:51.870Z,7.67
2023-05-15T00:54:26.087Z,7.57
2023-05-15T00:56:58.135Z,7.27
2023-05-15T00:59:35.203Z,7.83
2023-05-15T01:02:04.119Z,7.40
2023-05-15T01:04:32.288Z,7.40
2023-05-15T01:07:07.188Z,7.53
2023-05-15T01:09:36.797Z,7.13
2023-05-15T01:12:15.052Z,6.93
2023-05-15T01:14:43.180Z,7.93
2023-05-15T01:17:17.094Z,8.33
2023-05-15T01:19:46.984Z,8.37
2023-05-15T01:22:50.262Z,8.20
2023-05-15T01:25:53.922Z,8.63
2023-05-15T01:28:36.100Z,7.77
2023-05-15T01:31:09.680Z,7.70
2023-05-15T01:33:51.233Z,8.43
2023-05-15T01:36:23.297Z,7.57
2023-05-15T01:39:02.207Z,7.10
2023-05-15T01:41:32.807Z,7.50
2023-05-15T01:44:21.067Z,7.50
2023-05-15T01:46:52.438Z,6.87
2023-05-15T01:49:31.181Z,6.50
2023-05-15T01:52:04.347Z,6.63
2023-05-15T01:54:40.171Z,7.43
2023-05-15T01:57:10.001Z,7.30
2023-05-15T01:59:47.206Z,6.93
2023-05-15T02:02:16.378Z,7.03
2023-05-15T02:04:46.597Z,6.87
2023-05-15T02:07:22.157Z,7.27
2023-05-15T02:09:52.177Z,7.13
2023-05-15T02:12:28.207Z,6.90
2023-05-15T02:15:00.086Z,6.80
2023-05-15T02:17:36.094Z,7.47
2023-05-15T02:20:06.252Z,7.10
2023-05-15T02:22:41.238Z,7.20
2023-05-15T02:25:10.068Z,7.50
2023-05-15T02:27:54.271Z,7.07
2023-05-15T02:30:33.565Z,7.10
2023-05-15T02:33:18.234Z,6.37
2023-05-15T02:35:52.389Z,7.77
2023-05-15T02:38:43.289Z,6.53
2023-05-15T02:41:12.034Z,7.03
2023-05-15T02:43:56.325Z,6.73
2023-05-15T02:46:26.257Z,7.00
2023-05-15T02:48:55.649Z,6.80
2023-05-15T02:51:30.116Z,6.63
2023-05-15T02:54:00.853Z,6.97
2023-05-15T02:56:35.102Z,7.10
2023-05-15T02:59:03.443Z,6.67
2023-05-15T03:01:39.208Z,7.00
2023-05-15T03:04:07.140Z,6.53
2023-05-15T03:06:41.294Z,6.57
2023-05-15T03:09:09.172Z,6.57
2023-05-15T03:11:37.022Z,7.20
2023-05-15T03:14:11.246Z,6.83
2023-05-15T03:16:40.558Z,6.60
2023-05-15T03:19:15.296Z,6.70
2023-05-15T03:21:43.550Z,6.67
2023-05-15T03:24:18.166Z,6.87
2023-05-15T03:26:46.229Z,6.47
2023-05-15T03:29:21.369Z,6.53
2023-05-15T03:31:50.766Z,6.97
2023-05-15T03:34:18.862Z,6.70
2023-05-15T03:36:53.130Z,6.43
2023-05-15T03:39:27.976Z,5.67
2023-05-15T03:42:02.135Z,6.23
2023-05-15T03:44:36.215Z,6.23
2023-05-15T03:47:12.170Z,6.50
2023-05-15T03:49:40.177Z,5.73
2023-05-15T03:52:15.217Z,6.07
2023-05-15T03:54:43.738Z,6.10
2023-05-15T03:57:11.748Z,6.32
2023-05-15T03:59:46.141Z,6.40
2023-05-15T04:02:15.415Z,6.03
2023-05-15T04:04:51.245Z,6.32
2023-05-15T04:07:19.287Z,6.13
2023-05-15T04:09:54.275Z,6.05
2023-05-15T04:12:22.524Z,6.60
2023-05-15T04:14:50.317Z,6.22
2023-05-15T04:17:26.171Z,6.47
2023-05-15T04:19:54.081Z,6.20
2023-05-15T04:22:28.127Z,6.57
2023-05-15T04:24:55.905Z,6.20
2023-05-15T04:27:30.368Z,6.18
2023-05-15T04:29:58.448Z,6.80
2023-05-15T04:32:34.283Z,6.07
2023-05-15T04:35:02.266Z,6.53
2023-05-15T04:37:30.343Z,6.25
2023-05-15T04:40:05.124Z,6.53
2023-05-15T04:42:53.147Z,6.07
2023-05-15T04:45:28.175Z,6.30
2023-05-15T04:47:57.397Z,6.35
2023-05-15T04:50:32.126Z,6.68
2023-05-15T04:53:00.130Z,5.45
2023-05-15T04:55:34.218Z,5.75
2023-05-15T04:58:02.275Z,6.22
2023-05-15T05:00:31.087Z,6.22
2023-05-15T05:03:07.228Z,5.53
2023-05-15T05:05:35.104Z,5.57
2023-05-15T05:08:10.204Z,6.07
2023-05-15T05:10:38.069Z,6.28
2023-05-15T05:13:12.226Z,5.80
2023-05-15T05:15:40.395Z,5.72
2023-05-15T05:18:16.151Z,5.97
2023-05-15T05:20:43.953Z,5.80
2023-05-15T05:23:21.364Z,5.60
2023-05-15T05:25:49.269Z,5.30
2023-05-15T05:28:17.132Z,5.53
2023-05-15T05:30:52.164Z,5.80
2023-05-15T05:33:21.365Z,5.60
2023-05-15T05:35:56.204Z,5.75
2023-05-15T05:38:24.147Z,5.43
2023-05-15T05:40:58.332Z,5.43
2023-05-15T05:43:39.675Z,5.60
2023-05-15T05:46:14.242Z,5.53
2023-05-15T05:48:44.157Z,6.03
2023-05-15T05:51:18.362Z,5.35
2023-05-15T05:53:46.282Z,5.82
2023-05-15T05:56:14.150Z,5.80
2023-05-15T05:58:48.225Z,6.68
2023-05-15T06:01:16.484Z,6.03
2023-05-15T06:03:53.320Z,6.15
2023-05-15T06:06:21.229Z,5.63
2023-05-15T06:08:56.480Z,5.50
2023-05-15T06:11:25.588Z,4.65
2023-05-15T06:13:53.774Z,5.20
2023-05-15T06:16:28.253Z,5.50
2023-05-15T06:18:57.575Z,4.97
2023-05-15T06:21:32.166Z,5.18
2023-05-15T06:24:00.510Z,5.10
2023-05-15T06:26:35.146Z,4.80
2023-05-15T06:29:03.037Z,5.60
2023-05-15T06:31:37.483Z,5.20
2023-05-15T06:34:06.765Z,5.72
2023-05-15T06:36:35.436Z,5.60
2023-05-15T06:39:10.231Z,5.00
2023-05-15T06:41:38.372Z,5.07
2023-05-15T06:44:13.179Z,5.38
2023-05-15T06:46:48.047Z,5.25
2023-05-15T06:49:24.187Z,4.95
2023-05-15T06:51:53.234Z,4.80
2023-05-15T06:54:27.628Z,4.43
2023-05-15T06:56:55.530Z,4.53
2023-05-15T06:59:23.484Z,4.80
2023-05-15T07:01:58.240Z,4.30
2023-05-15T07:04:27.872Z,4.45
2023-05-15T07:07:02.264Z,4.20
2023-05-15T07:09:30.119Z,4.30
2023-05-15T07:12:04.276Z,3.75
2023-05-15T07:14:32.180Z,3.83
2023-05-15T07:17:00.079Z,4.05
2023-05-15T07:19:36.264Z,4.20
2023-05-15T07:22:04.253Z,4.00
2023-05-15T07:24:39.745Z,4.20
2023-05-15T07:27:08.411Z,3.60
2023-05-15T07:29:43.473Z,3.35
2023-05-15T07:32:11.821Z,3.72
2023-05-15T07:34:42.684Z,3.00
2023-05-15T07:37:17.220Z,3.75
2023-05-15T07:39:45.269Z,3.33
2023-05-15T07:42:19.196Z,3.40
2023-05-15T07:44:53.527Z,3.72
2023-05-15T07:47:28.267Z,3.45
2023-05-15T07:49:57.737Z,3.70
2023-05-15T07:52:32.280Z,3.75
2023-05-15T07:55:01.308Z,3.50
2023-05-15T07:57:29.184Z,3.45
2023-05-15T08:00:03.244Z,3.60
2023-05-15T08:02:31.487Z,3.35
2023-05-15T08:05:07.253Z,3.30
2023-05-15T08:07:36.199Z,3.28
2023-05-15T08:10:12.208Z,3.67
2023-05-15T08:12:46.054Z,3.55
2023-05-15T08:15:21.352Z,3.60
2023-05-15T08:17:49.479Z,3.55
2023-05-15T08:20:32.410Z,3.38
2023-05-15T08:23:00.382Z,3.70
2023-05-15T08:25:28.229Z,3.33
2023-05-15T08:28:02.269Z,3.45
2023-05-15T08:30:30.159Z,3.20
2023-05-15T08:33:04.379Z,3.47
2023-05-15T08:35:33.658Z,3.00
2023-05-15T08:38:08.200Z,3.42
2023-05-15T08:40:39.646Z,3.33
2023-05-15T08:43:23.408Z,3.47
2023-05-15T08:45:58.367Z,3.17
2023-05-15T08:48:37.485Z,3.33
2023-05-15T08:51:10.527Z,3.30
2023-05-15T08:53:45.341Z,3.45
2023-05-15T08:56:13.550Z,6.30
2023-05-15T08:58:41.626Z,4.65
2023-05-15T09:01:16.228Z,3.70
2023-05-15T09:03:44.624Z,3.22
2023-05-15T09:06:21.195Z,3.30
2023-05-15T09:08:51.304Z,3.50
2023-05-15T09:11:26.549Z,3.40
2023-05-15T09:13:54.624Z,3.67
2023-05-15T09:16:29.483Z,3.20
2023-05-15T09:19:00.168Z,3.63
2023-05-15T09:21:38.453Z,3.28
2023-05-15T09:24:21.660Z,3.10
2023-05-15T09:27:09.227Z,3.50
2023-05-15T09:29:40.506Z,4.00
2023-05-15T09:32:16.591Z,3.50
2023-05-15T09:34:45.936Z,3.22
2023-05-15T09:37:36.418Z,3.65
2023-05-15T09:40:12.083Z,3.67
2023-05-15T09:43:01.354Z,3.30
2023-05-15T09:45:35.502Z,3.55
2023-05-15T09:48:13.573Z,3.30
2023-05-15T09:50:42.798Z,3.33
2023-05-15T09:53:21.640Z,3.60
2023-05-15T09:55:50.383Z,3.58
2023-05-15T09:58:19.503Z,3.55
2023-05-15T10:00:55.233Z,3.58
2023-05-15T10:03:24.012Z,3.40
2023-05-15T10:05:58.349Z,3.75
2023-05-15T10:08:29.271Z,3.40
2023-05-15T10:11:07.275Z,3.60
2023-05-15T10:13:36.923Z,3.53
2023-05-15T10:16:12.642Z,3.40
2023-05-15T10:18:42.222Z,3.35
2023-05-15T10:21:11.080Z,3.85
2023-05-15T10:23:50.246Z,3.65
2023-05-15T10:26:24.121Z,3.50
2023-05-15T10:29:00.255Z,3.58
2023-05-15T10:31:29.679Z,3.45
2023-05-15T10:34:04.255Z,3.70
2023-05-15T10:36:33.107Z,3.40
2023-05-15T10:39:11.455Z,3.58
2023-05-15T10:41:41.358Z,3.72
2023-05-15T10:44:30.386Z,3.53
2023-05-15T10:46:58.464Z,3.70
2023-05-15T10:49:26.460Z,3.45
2023-05-15T10:52:01.257Z,4.13
2023-05-15T10:54:31.271Z,4.05
2023-05-15T10:57:06.444Z,3.90
2023-05-15T10:59:35.015Z,3.95
2023-05-15T11:02:28.320Z,4.18
2023-05-15T11:04:57.977Z,3.92
2023-05-15T11:07:33.281Z,4.13
2023-05-15T11:10:22.519Z,3.75
2023-05-15T11:13:04.271Z,3.92
2023-05-15T11:15:42.927Z,3.60
2023-05-15T11:18:17.436Z,3.85
2023-05-15T11:21:09.679Z,3.35
2023-05-15T11:23:48.361Z,3.38
2023-05-15T11:26:17.480Z,3.40
2023-05-15T11:28:47.088Z,3.30
2023-05-15T11:31:22.322Z,3.30
2023-05-15T11:33:52.493Z,3.50
2023-05-15T11:36:32.337Z,3.13
2023-05-15T11:39:00.720Z,3.70
2023-05-15T11:41:40.308Z,3.78
2023-05-15T11:44:21.161Z,4.32
2023-05-15T11:46:56.426Z,3.75
2023-05-15T11:49:26.378Z,3.65
2023-05-15T11:51:54.177Z,3.47
2023-05-15T11:54:29.264Z,3.28
2023-05-15T11:56:59.844Z,3.88
2023-05-15T11:59:35.285Z,3.78
2023-05-15T12:02:06.898Z,4.03
2023-05-15T12:04:42.327Z,3.70
2023-05-15T12:07:12.069Z,3.97
2023-05-15T12:09:41.014Z,4.03
2023-05-15T12:12:21.283Z,4.30
2023-05-15T12:14:49.051Z,4.28
2023-05-15T12:17:23.330Z,3.90
2023-05-15T12:19:52.359Z,3.50
2023-05-15T12:22:26.259Z,3.65
2023-05-15T12:24:54.158Z,3.88
2023-05-15T12:27:30.426Z,3.35
2023-05-15T12:29:58.410Z,3.08
2023-05-15T12:32:27.579Z,3.40
2023-05-15T12:35:02.269Z,3.60
2023-05-15T12:37:32.485Z,3.80
2023-05-15T12:40:09.360Z,3.60
2023-05-15T12:42:41.856Z,3.25
2023-05-15T12:45:29.315Z,3.03
2023-05-15T12:47:59.702Z,3.75
2023-05-15T12:50:37.381Z,3.40
2023-05-15T12:53:06.335Z,3.80
2023-05-15T12:55:36.429Z,3.40
2023-05-15T12:58:14.867Z,3.40
2023-05-15T13:00:45.975Z,2.95
2023-05-15T13:03:21.349Z,3.25
2023-05-15T13:05:49.314Z,3.38
2023-05-15T13:08:25.291Z,3.40
2023-05-15T13:10:58.577Z,3.70
2023-05-15T13:13:50.438Z,4.05
2023-05-15T13:16:23.189Z,3.58
2023-05-15T13:18:57.323Z,3.15
2023-05-15T13:21:25.310Z,3.35
2023-05-15T13:23:53.413Z,3.28
2023-05-15T13:26:28.299Z,3.88
2023-05-15T13:28:57.489Z,3.85
2023-05-15T13:31:33.372Z,3.38
2023-05-15T13:34:01.168Z,3.00
2023-05-15T13:36:35.473Z,3.40
2023-05-15T13:39:03.953Z,3.63
2023-05-15T13:41:31.839Z,3.20
2023-05-15T13:44:08.305Z,3.50
2023-05-15T13:46:43.185Z,3.80
2023-05-15T13:49:17.316Z,3.28
2023-05-15T13:51:45.678Z,3.80
2023-05-15T13:54:20.283Z,3.20
2023-05-15T13:56:48.209Z,3.45
2023-05-15T13:59:24.461Z,3.20
2023-05-15T14:01:52.273Z,2.70
2023-05-15T14:04:20.554Z,2.85
2023-05-15T14:06:55.319Z,3.08
2023-05-15T14:09:23.182Z,2.60
2023-05-15T14:11:57.329Z,2.70
2023-05-15T14:14:26.725Z,2.60
2023-05-15T14:17:01.417Z,2.30
2023-05-15T14:19:36.134Z,2.40
2023-05-15T14:22:10.574Z,2.38
2023-05-15T14:24:38.577Z,2.50
2023-05-15T14:27:06.924Z,2.20
2023-05-15T14:29:42.305Z,2.13
2023-05-15T14:32:10.275Z,2.10
2023-05-15T14:34:44.562Z,2.25
2023-05-15T14:37:12.615Z,2.33
2023-05-15T14:39:47.326Z,2.22
2023-05-15T14:42:17.074Z,1.88
2023-05-15T14:45:00.348Z,1.90
2023-05-15T14:47:30.009Z,2.13
2023-05-15T14:50:04.595Z,2.30
2023-05-15T14:52:32.470Z,2.03
2023-05-15T14:55:12.408Z,1.98
2023-05-15T14:57:40.470Z,2.10
2023-05-15T15:00:20.514Z,1.83
2023-05-15T15:02:48.455Z,1.98
2023-05-15T15:05:16.759Z,2.30
2023-05-15T15:08:09.336Z,2.83
2023-05-15T15:10:39.243Z,2.20
2023-05-15T15:13:16.296Z,2.47
2023-05-15T15:15:45.897Z,2.30
2023-05-15T15:18:20.356Z,2.30
2023-05-15T15:20:48.474Z,2.95
2023-05-15T15:23:23.790Z,2.20
2023-05-15T15:25:51.827Z,2.47
2023-05-15T15:28:19.605Z,2.40
2023-05-15T15:30:55.357Z,2.20
2023-05-15T15:33:23.186Z,2.47
2023-05-15T15:35:58.404Z,2.38
2023-05-15T15:38:26.264Z,2.67
2023-05-15T15:41:00.321Z,2.47
2023-05-15T15:43:28.186Z,2.67
2023-05-15T15:46:10.513Z,2.42
2023-05-15T15:48:38.301Z,2.97
2023-05-15T15:51:06.584Z,2.83
2023-05-15T15:53:41.589Z,4.00
2023-05-15T15:56:09.454Z,2.33
2023-05-15T15:58:43.385Z,2.47
2023-05-15T16:01:12.868Z,1.92
2023-05-15T16:03:47.598Z,2.85
2023-05-15T16:06:15.533Z,2.78
2023-05-15T16:08:43.265Z,3.08
2023-05-15T16:11:17.320Z,3.50
2023-05-15T16:13:45.483Z,3.65
2023-05-15T16:16:21.449Z,3.45
2023-05-15T16:18:49.484Z,3.63
2023-05-15T16:21:23.344Z,3.63
2023-05-15T16:23:51.387Z,3.47
2023-05-15T16:26:25.572Z,4.03
2023-05-15T16:28:53.350Z,3.65
2023-05-15T16:31:22.692Z,3.75
2023-05-15T16:33:58.357Z,2.80
2023-05-15T16:36:26.195Z,3.65
2023-05-15T16:39:01.329Z,3.83
2023-05-15T16:41:29.192Z,3.80
2023-05-15T16:44:03.391Z,4.05
2023-05-15T16:46:41.577Z,3.83
2023-05-15T16:49:16.577Z,3.70
2023-05-15T16:51:45.077Z,3.60
2023-05-15T16:54:12.913Z,3.15
2023-05-15T16:56:47.430Z,3.63
2023-05-15T16:59:15.766Z,3.70
2023-05-15T17:01:51.478Z,3.97
2023-05-15T17:04:19.264Z,3.97
2023-05-15T17:06:53.720Z,3.75
2023-05-15T17:09:21.628Z,3.70
2023-05-15T17:11:49.401Z,4.03
2023-05-15T17:14:23.402Z,4.20
2023-05-15T17:16:52.574Z,4.55
2023-05-15T17:19:26.402Z,4.45
2023-05-15T17:21:54.217Z,4.40
2023-05-15T17:24:35.581Z,4.57
2023-05-15T17:27:18.318Z,4.32
2023-05-15T17:29:52.574Z,4.38
2023-05-15T17:32:22.238Z,4.57
2023-05-15T17:34:51.306Z,4.88
2023-05-15T17:37:25.368Z,4.35
2023-05-15T17:39:54.559Z,4.18
2023-05-15T17:42:31.504Z,4.95
2023-05-15T17:45:20.375Z,4.82
2023-05-15T17:47:56.392Z,4.85
2023-05-15T17:50:24.222Z,5.00
2023-05-15T17:52:59.569Z,4.80
2023-05-15T17:55:27.636Z,4.53
2023-05-15T17:57:55.612Z,4.85
2023-05-15T18:00:30.344Z,5.10
2023-05-15T18:03:00.715Z,4.25
2023-05-15T18:05:35.366Z,5.40
2023-05-15T18:08:03.685Z,5.05
2023-05-15T18:10:38.531Z,5.32
2023-05-15T18:13:06.445Z,4.95
2023-05-15T18:15:35.396Z,5.07
2023-05-15T18:18:11.486Z,5.22
2023-05-15T18:20:39.316Z,4.93
2023-05-15T18:23:13.558Z,5.13
2023-05-15T18:25:41.686Z,5.10
2023-05-15T18:28:16.569Z,4.88
2023-05-15T18:30:45.934Z,5.15
2023-05-15T18:33:22.548Z,5.63
2023-05-15T18:35:52.021Z,4.72
2023-05-15T18:38:19.892Z,5.18
2023-05-15T18:40:54.385Z,4.90
2023-05-15T18:43:22.218Z,4.55
2023-05-15T18:45:56.415Z,3.60
2023-05-15T18:48:25.611Z,3.40
2023-05-15T18:51:02.482Z,3.30
2023-05-15T18:53:30.274Z,3.22
2023-05-15T18:56:04.664Z,2.85
2023-05-15T18:58:32.482Z,3.25
2023-05-15T19:01:13.882Z,3.00
2023-05-15T19:03:43.254Z,2.90
2023-05-15T19:06:11.996Z,2.88
2023-05-15T19:08:46.384Z,3.72
2023-05-15T19:11:15.895Z,3.60
2023-05-15T19:13:50.508Z,3.22
2023-05-15T19:16:18.440Z,3.88
2023-05-15T19:18:54.476Z,3.25
2023-05-15T19:21:22.430Z,3.40
2023-05-15T19:24:01.962Z,3.20
2023-05-15T19:26:30.072Z,3.40
2023-05-15T19:28:57.950Z,3.20
2023-05-15T19:31:32.590Z,3.70
2023-05-15T19:34:01.964Z,3.45
2023-05-15T19:36:39.572Z,3.50
2023-05-15T19:39:07.377Z,3.25
2023-05-15T19:41:41.575Z,3.95
2023-05-15T19:44:29.415Z,3.03
2023-05-15T19:47:03.477Z,3.78
2023-05-15T19:49:33.250Z,3.63
2023-05-15T19:52:08.786Z,3.80
2023-05-15T19:54:36.617Z,4.10
2023-05-15T19:57:04.576Z,3.70
2023-05-15T19:59:38.455Z,3.35
2023-05-15T20:02:10.262Z,3.33
2023-05-15T20:04:46.438Z,4.05
2023-05-15T20:07:14.315Z,3.83
2023-05-15T20:09:48.542Z,3.25
2023-05-15T20:12:16.466Z,3.47
2023-05-15T20:14:56.416Z,3.53
2023-05-15T20:17:24.291Z,3.40
2023-05-15T20:20:00.436Z,3.40
2023-05-15T20:22:28.674Z,3.65
2023-05-15T20:24:56.826Z,3.15
2023-05-15T20:27:31.430Z,3.60
2023-05-15T20:29:59.572Z,3.70
2023-05-15T20:32:34.463Z,3.38
2023-05-15T20:35:05.754Z,3.13
2023-05-15T20:37:41.563Z,3.30
2023-05-15T20:40:11.884Z,3.45
2023-05-15T20:42:40.354Z,3.70
2023-05-15T20:45:15.447Z,4.03
2023-05-15T20:47:50.144Z,3.65
2023-05-15T20:50:28.592Z,3.92
2023-05-15T20:52:56.635Z,3.40
2023-05-15T20:55:31.437Z,3.00
2023-05-15T20:57:59.250Z,3.72
2023-05-15T21:00:34.604Z,4.35
2023-05-15T21:03:02.681Z,4.55
2023-05-15T21:05:31.870Z,3.90
2023-05-15T21:08:06.482Z,3.70
2023-05-15T21:10:34.252Z,3.90
2023-05-15T21:13:08.452Z,3.97
2023-05-15T21:15:36.899Z,3.85
2023-05-15T21:18:11.479Z,3.75
2023-05-15T21:20:41.244Z,4.30
2023-05-15T21:23:15.712Z,3.63
2023-05-15T21:25:43.925Z,4.13
2023-05-15T21:28:11.777Z,4.22
2023-05-15T21:30:46.471Z,4.35
2023-05-15T21:33:14.220Z,3.90
2023-05-15T21:35:50.479Z,3.80
2023-05-15T21:38:18.686Z,3.60
2023-05-15T21:40:53.483Z,3.67
2023-05-15T21:43:21.273Z,4.15
2023-05-15T21:46:02.606Z,3.88
2023-05-15T21:48:30.660Z,4.00
2023-05-15T21:51:00.118Z,4.18
2023-05-15T21:53:34.438Z,3.88
2023-05-15T21:56:03.841Z,3.70
2023-05-15T21:58:38.450Z,3.53
2023-05-15T22:01:06.418Z,3.80
2023-05-15T22:03:40.603Z,3.83
2023-05-15T22:06:09.909Z,3.58
2023-05-15T22:08:37.698Z,3.92
2023-05-15T22:11:12.473Z,3.83
2023-05-15T22:13:40.334Z,4.25
2023-05-15T22:16:14.528Z,3.95
2023-05-15T22:18:45.149Z,3.83
2023-05-15T22:21:20.454Z,4.10
2023-05-15T22:23:48.716Z,4.18
2023-05-15T22:26:23.530Z,4.50
2023-05-15T22:28:55.966Z,4.07
2023-05-15T22:31:30.723Z,4.40
2023-05-15T22:33:58.940Z,4.50
2023-05-15T22:36:28.128Z,4.50
2023-05-15T22:39:02.432Z,4.63
2023-05-15T22:41:30.343Z,4.07
2023-05-15T22:44:04.433Z,4.72
2023-05-15T22:46:39.137Z,4.75
2023-05-15T22:49:16.549Z,4.40
2023-05-15T22:51:45.725Z,4.65
2023-05-15T22:54:20.631Z,4.53
2023-05-15T22:56:49.932Z,4.55
2023-05-15T22:59:18.230Z,4.65
2023-05-15T23:01:53.512Z,4.65
2023-05-15T23:04:21.395Z,4.78
2023-05-15T23:06:57.450Z,4.93
2023-05-15T23:09:25.268Z,4.90
2023-05-15T23:11:59.458Z,5.18
2023-05-15T23:14:27.293Z,4.90
2023-05-15T23:17:01.601Z,4.63
2023-05-15T23:19:29.525Z,4.37
2023-05-15T23:21:58.679Z,4.70
2023-05-15T23:24:33.546Z,4.87
2023-05-15T23:27:01.347Z,5.07
2023-05-15T23:29:35.496Z,5.03
2023-05-15T23:32:03.402Z,5.40
2023-05-15T23:34:37.555Z,4.83
2023-05-15T23:37:06.695Z,4.97
2023-05-15T23:39:36.001Z,5.63
2023-05-15T23:42:10.438Z,5.23
2023-05-15T23:44:44.549Z,5.53
2023-05-15T23:47:25.624Z,5.67
2023-05-15T23:49:53.453Z,5.67
2023-05-15T23:52:29.522Z,5.23
2023-05-15T23:54:57.307Z,5.13
2023-05-15T23:57:31.590Z,5.40
2023-05-15T23:59:59.553Z,5.47
